createdAt,value
2023-02-25T00:01:25.806Z,995.5
2023-02-25T00:06:31.996Z,995.5
2023-02-25T00:11:38.160Z,995.6
2023-02-25T00:16:44.414Z,995.6
2023-02-25T00:21:50.473Z,995.5
2023-02-25T00:26:58.405Z,995.5
2023-02-25T00:32:06.548Z,995.5
2023-02-25T00:37:14.362Z,995.5
2023-02-25T00:42:20.510Z,995.5
2023-02-25T00:47:28.424Z,995.4
2023-02-25T00:52:34.620Z,995.4
2023-02-25T00:57:42.547Z,995.5
2023-02-25T01:02:50.493Z,995.5
2023-02-25T01:07:56.673Z,995.5
2023-02-25T01:13:04.596Z,995.5
2023-02-25T01:18:12.529Z,995.5
2023-02-25T01:23:18.754Z,995.5
2023-02-25T01:28:26.678Z,995.6
2023-02-25T01:33:32.824Z,995.6
2023-02-25T01:38:39.045Z,995.6
2023-02-25T01:43:46.955Z,995.6
2023-02-25T01:48:54.897Z,995.5
2023-02-25T01:54:01.099Z,995.5
2023-02-25T01:59:09.011Z,995.6
2023-02-25T02:04:15.179Z,995.6
2023-02-25T02:09:23.160Z,995.6
2023-02-25T02:14:29.309Z,995.6
2023-02-25T02:19:37.255Z,995.6
2023-02-25T02:24:45.236Z,995.5
2023-02-25T02:29:51.367Z,995.5
2023-02-25T02:34:59.321Z,995.7
2023-02-25T02:40:07.273Z,995.6
2023-02-25T02:45:13.436Z,995.5
2023-02-25T02:50:21.362Z,995.5
2023-02-25T02:55:27.551Z,995.5
2023-02-25T03:00:35.500Z,995.5
2023-02-25T03:05:43.423Z,995.5
2023-02-25T03:10:49.608Z,995.6
2023-02-25T03:15:57.590Z,995.6
2023-02-25T03:21:05.477Z,995.7
2023-02-25T03:26:11.676Z,995.8
2023-02-25T03:31:19.630Z,995.6
2023-02-25T03:36:25.774Z,995.7
2023-02-25T03:41:33.741Z,995.8
2023-02-25T03:46:41.705Z,995.8
2023-02-25T03:51:47.884Z,995.8
2023-02-25T03:56:55.800Z,995.8
2023-02-25T04:02:03.787Z,995.8
2023-02-25T04:07:09.898Z,995.8
2023-02-25T04:12:17.867Z,995.9
2023-02-25T04:17:24.031Z,995.9
2023-02-25T04:22:30.187Z,996
2023-02-25T04:27:38.425Z,996
2023-02-25T04:32:46.190Z,996.1
2023-02-25T04:37:52.251Z,996.1
2023-02-25T04:43:00.250Z,996.1
2023-02-25T04:48:08.174Z,996
2023-02-25T04:53:14.319Z,996
2023-02-25T04:58:22.281Z,996
2023-02-25T05:03:28.461Z,996
2023-02-25T05:08:36.408Z,996
2023-02-25T05:13:42.578Z,995.9
2023-02-25T05:18:50.521Z,996
2023-02-25T05:23:58.458Z,996
2023-02-25T05:29:06.453Z,995.9
2023-02-25T05:34:12.578Z,995.9
2023-02-25T05:39:20.509Z,996
2023-02-25T05:44:28.491Z,996
2023-02-25T05:49:36.439Z,996
2023-02-25T05:54:44.331Z,996
2023-02-25T05:59:50.545Z,996
2023-02-25T06:04:56.716Z,996.1
2023-02-25T06:10:04.692Z,996.2
2023-02-25T06:15:11.019Z,996.2
2023-02-25T06:20:18.758Z,996.1
2023-02-25T06:25:24.920Z,996.2
2023-02-25T06:30:32.964Z,996.3
2023-02-25T06:35:40.790Z,996.4
2023-02-25T06:40:46.996Z,996.4
2023-02-25T06:45:54.996Z,996.5
2023-02-25T06:51:01.071Z,996.5
2023-02-25T06:56:07.252Z,996.6
2023-02-25T07:01:13.581Z,996.6
2023-02-25T07:06:21.765Z,996.6
2023-02-25T07:11:29.507Z,996.7
2023-02-25T07:16:35.522Z,996.8
2023-02-25T07:21:41.666Z,996.8
2023-02-25T07:26:49.588Z,996.8
2023-02-25T07:31:57.808Z,996.8
2023-02-25T07:37:05.511Z,996.8
2023-02-25T07:42:11.667Z,996.7
2023-02-25T07:47:19.647Z,996.8
2023-02-25T07:52:27.545Z,996.8
2023-02-25T07:57:35.515Z,996.9
2023-02-25T08:02:41.799Z,996.9
2023-02-25T08:07:49.719Z,996.9
2023-02-25T08:12:55.780Z,996.9
2023-02-25T08:18:03.758Z,997
2023-02-25T08:23:09.888Z,997
2023-02-25T08:28:17.870Z,996.9
2023-02-25T08:33:25.839Z,997
2023-02-25T08:38:33.750Z,997
2023-02-25T08:43:41.686Z,997.2
2023-02-25T08:48:49.664Z,997.3
2023-02-25T08:53:57.591Z,997.3
2023-02-25T08:59:03.745Z,997.4
2023-02-25T09:04:11.766Z,997.3
2023-02-25T09:09:19.652Z,997.3
2023-02-25T09:14:25.807Z,997.3
2023-02-25T09:19:32.016Z,997.4
2023-02-25T09:24:38.169Z,997.6
2023-02-25T09:29:44.352Z,997.5
2023-02-25T09:34:50.531Z,997.5
2023-02-25T09:39:58.465Z,997.6
2023-02-25T09:45:06.374Z,997.7
2023-02-25T09:55:20.522Z,997.7
2023-02-25T10:00:26.692Z,997.8
2023-02-25T10:05:32.821Z,998
2023-02-25T10:10:40.842Z,997.9
2023-02-25T10:15:52.837Z,998
2023-02-25T10:20:54.917Z,998
2023-02-25T10:26:02.877Z,998.1
2023-02-25T10:31:09.164Z,998.4
2023-02-25T10:36:15.183Z,998.5
2023-02-25T10:41:21.709Z,998.5
2023-02-25T10:46:27.583Z,998.5
2023-02-25T10:51:33.704Z,998.5
2023-02-25T10:56:39.905Z,998.6
2023-02-25T11:01:47.834Z,998.6
2023-02-25T11:06:53.975Z,998.7
2023-02-25T11:12:00.166Z,998.7
2023-02-25T11:17:08.313Z,998.6
2023-02-25T11:22:12.524Z,998.6
2023-02-25T11:27:20.449Z,998.7
2023-02-25T11:32:28.536Z,998.7
2023-02-25T11:42:40.721Z,998.6
2023-02-25T11:47:46.857Z,998.6
2023-02-25T11:52:54.818Z,998.6
2023-02-25T11:58:01.005Z,998.7
2023-02-25T12:03:08.943Z,998.8
2023-02-25T12:08:16.923Z,998.6
2023-02-25T12:13:23.124Z,998.7
2023-02-25T12:18:30.978Z,998.7
2023-02-25T12:23:37.162Z,998.6
2023-02-25T12:28:43.363Z,998.6
2023-02-25T12:33:49.488Z,998.6
2023-02-25T12:38:55.645Z,999
2023-02-25T12:44:03.634Z,999.1
2023-02-25T12:49:11.594Z,998.9
2023-02-25T12:54:19.509Z,998.9
2023-02-25T12:59:25.692Z,998.8
2023-02-25T13:04:31.842Z,998.8
2023-02-25T13:09:38.020Z,998.9
2023-02-25T13:14:45.988Z,998.9
2023-02-25T13:19:53.904Z,999
2023-02-25T13:25:00.100Z,998.9
2023-02-25T13:30:08.042Z,998.9
2023-02-25T13:35:14.194Z,999.1
2023-02-25T13:40:20.382Z,999.1
2023-02-25T13:45:28.331Z,999.2
2023-02-25T13:50:34.570Z,999.1
2023-02-25T13:55:42.426Z,999.2
2023-02-25T14:00:50.379Z,999.2
2023-02-25T14:05:58.333Z,999.3
2023-02-25T14:11:04.480Z,999.4
2023-02-25T14:16:12.761Z,999.4
2023-02-25T14:21:18.600Z,999.4
2023-02-25T14:26:26.560Z,999.5
2023-02-25T14:31:34.744Z,999.5
2023-02-25T14:36:42.462Z,999.5
2023-02-25T14:41:48.607Z,999.6
2023-02-25T14:46:56.579Z,999.6
2023-02-25T14:52:02.930Z,999.7
2023-02-25T14:57:10.669Z,999.7
2023-02-25T15:02:16.896Z,999.8
2023-02-25T15:07:24.805Z,999.8
2023-02-25T15:12:30.944Z,999.9
2023-02-25T15:17:37.144Z,999.9
2023-02-25T15:22:43.287Z,999.8
2023-02-25T15:27:49.442Z,999.9
2023-02-25T15:32:55.640Z,1000
2023-02-25T15:38:01.785Z,1000.2
2023-02-25T15:43:07.951Z,1000.3
2023-02-25T15:48:16.237Z,1000.3
2023-02-25T15:53:22.057Z,1000.4
2023-02-25T15:58:29.992Z,1000.5
2023-02-25T16:03:36.194Z,1000.6
2023-02-25T16:08:44.130Z,1000.6
2023-02-25T16:13:50.287Z,1000.7
2023-02-25T16:18:56.489Z,1000.8
2023-02-25T16:24:02.619Z,1000.9
2023-02-25T16:29:08.783Z,1000.9
2023-02-25T16:34:16.759Z,1001
2023-02-25T16:39:24.665Z,1001.1
2023-02-25T16:44:30.861Z,1001.2
2023-02-25T16:49:38.828Z,1001.3
2023-02-25T16:54:46.751Z,1001.4
2023-02-25T16:59:52.908Z,1001.5
2023-02-25T17:04:59.098Z,1001.5
2023-02-25T17:10:07.029Z,1001.6
2023-02-25T17:15:13.212Z,1001.7
2023-02-25T17:20:21.163Z,1001.7
2023-02-25T17:25:29.110Z,1001.8
2023-02-25T17:30:35.362Z,1001.9
2023-02-25T17:35:43.249Z,1001.9
2023-02-25T17:40:49.390Z,1002
2023-02-25T17:45:57.404Z,1002
2023-02-25T17:51:05.321Z,1002.1
2023-02-25T17:56:11.712Z,1002.2
2023-02-25T18:01:19.486Z,1002.2
2023-02-25T18:06:25.850Z,1002.3
2023-02-25T18:11:31.748Z,1002.4
2023-02-25T18:16:39.780Z,1002.4
2023-02-25T18:21:45.889Z,1002.5
2023-02-25T18:26:53.828Z,1002.6
2023-02-25T18:32:01.932Z,1002.8
2023-02-25T18:37:07.963Z,1002.8
2023-02-25T18:42:14.085Z,1002.9
2023-02-25T18:47:22.026Z,1002.9
2023-02-25T18:52:28.222Z,1003
2023-02-25T18:57:34.394Z,1003
2023-02-25T19:02:40.564Z,1003.1
2023-02-25T19:07:48.523Z,1003.2
2023-02-25T19:12:54.662Z,1003.2
2023-02-25T19:18:02.641Z,1003.2
2023-02-25T19:23:08.780Z,1003.3
2023-02-25T19:28:16.707Z,1003.3
2023-02-25T19:33:24.663Z,1003.3
2023-02-25T19:38:30.861Z,1003.3
2023-02-25T19:43:37.059Z,1003.4
2023-02-25T19:48:44.960Z,1003.5
2023-02-25T19:53:52.920Z,1003.5
2023-02-25T19:58:59.053Z,1003.6
2023-02-25T20:04:07.048Z,1003.7
2023-02-25T20:09:13.190Z,1003.8
2023-02-25T20:14:21.113Z,1003.7
2023-02-25T20:19:27.314Z,1003.7
2023-02-25T20:24:35.287Z,1003.8
2023-02-25T20:29:41.459Z,1003.8
2023-02-25T20:34:47.625Z,1003.9
2023-02-25T20:39:53.783Z,1003.9
2023-02-25T20:44:59.900Z,1003.9
2023-02-25T20:50:06.092Z,1004.1
2023-02-25T20:55:12.286Z,1004.1
2023-02-25T21:00:18.408Z,1004.1
2023-02-25T21:05:24.682Z,1004.2
2023-02-25T21:10:30.782Z,1004.2
2023-02-25T21:15:36.921Z,1004.3
2023-02-25T21:20:44.852Z,1004.3
2023-02-25T21:25:51.063Z,1004.3
2023-02-25T21:30:57.381Z,1004.4
2023-02-25T21:36:05.148Z,1004.4
2023-02-25T21:41:13.123Z,1004.4
2023-02-25T21:46:19.303Z,1004.4
2023-02-25T21:56:35.190Z,1004.4
2023-02-25T22:01:43.209Z,1004.4
2023-02-25T22:06:49.281Z,1004.5
2023-02-25T22:11:55.476Z,1004.5
2023-02-25T22:17:03.381Z,1004.5
2023-02-25T22:22:09.576Z,1004.6
2023-02-25T22:27:15.768Z,1004.6
2023-02-25T22:32:21.948Z,1004.7
2023-02-25T22:37:28.092Z,1004.8
2023-02-25T22:42:34.351Z,1004.8
2023-02-25T22:47:42.183Z,1004.9
2023-02-25T22:52:50.141Z,1004.9
2023-02-25T22:57:58.123Z,1004.9
2023-02-25T23:03:04.307Z,1004.9
2023-02-25T23:08:10.416Z,1004.9
2023-02-25T23:13:18.421Z,1005
2023-02-25T23:18:24.530Z,1005
2023-02-25T23:23:32.597Z,1004.9
2023-02-25T23:28:38.662Z,1005
2023-02-25T23:33:44.842Z,1005
2023-02-25T23:38:52.793Z,1005
2023-02-25T23:43:58.952Z,1005.1
2023-02-25T23:49:06.909Z,1005.1
2023-02-25T23:54:13.070Z,1005.2
2023-02-25T23:59:19.226Z,1005.2
